Time;durP1;ratioP1;P1;durP2;ratioP2;P2;SDS_P1;SDS_P2;PMS_P1;PMS_P2;Temp;Humidity;BMP_temperature;BMP_pressure;BME280_temperature;BME280_humidity;BME280_pressure;Samples;Min_cycle;Max_cycle;Signal;HPM_P1;HPM_P2
2023/10/23 00:00:14;;;;;;;4.20;3.50;;;;;;;;;;5092844;28;20189;-76
2023/10/23 00:02:41;;;;;;;5.35;3.72;;;;;;;;;;5093144;28;20608;-76
2023/10/23 00:05:13;;;;;;;6.80;4.72;;;;;;;;;;5093235;28;20197;-76
2023/10/23 00:07:41;;;;;;;5.15;3.90;;;;;;;;;;5092722;28;20596;-76
2023/10/23 00:10:09;;;;;;;4.63;3.50;;;;;;;;;;5092293;28;20225;-76
2023/10/23 00:12:37;;;;;;;3.78;2.35;;;;;;;;;;5093137;28;20459;-76
2023/10/23 00:15:04;;;;;;;4.18;3.40;;;;;;;;;;5092986;28;20213;-76
2023/10/23 00:17:32;;;;;;;5.05;3.58;;;;;;;;;;5092610;28;20190;-76
2023/10/23 00:19:59;;;;;;;5.18;3.85;;;;;;;;;;5092542;28;20226;-76
2023/10/23 00:22:28;;;;;;;4.70;3.10;;;;;;;;;;5092616;28;20200;-76
2023/10/23 00:24:56;;;;;;;3.63;2.70;;;;;;;;;;5092271;28;20186;-77
2023/10/23 00:27:23;;;;;;;3.38;2.35;;;;;;;;;;5093021;28;20822;-77
2023/10/23 00:29:52;;;;;;;4.55;3.28;;;;;;;;;;5096331;28;20670;-77
2023/10/23 00:32:19;;;;;;;3.35;2.30;;;;;;;;;;5096227;28;20186;-77
2023/10/23 00:34:47;;;;;;;4.78;2.90;;;;;;;;;;5096371;28;20248;-77
2023/10/23 00:37:14;;;;;;;3.92;2.75;;;;;;;;;;5095761;28;20648;-77
2023/10/23 00:39:43;;;;;;;5.03;3.53;;;;;;;;;;5095461;28;20228;-77
2023/10/23 00:42:11;;;;;;;6.68;3.55;;;;;;;;;;5095793;28;20182;-77
2023/10/23 00:44:38;;;;;;;6.43;3.92;;;;;;;;;;5095985;28;20695;-77
2023/10/23 00:47:06;;;;;;;5.68;3.13;;;;;;;;;;5095965;28;20196;-77
2023/10/23 00:49:36;;;;;;;4.45;3.28;;;;;;;;;;5096200;28;20196;-77
2023/10/23 00:52:03;;;;;;;4.00;2.83;;;;;;;;;;5095812;28;20177;-77
2023/10/23 00:54:32;;;;;;;5.65;3.45;;;;;;;;;;5096071;28;20231;-77
2023/10/23 00:57:01;;;;;;;5.32;3.50;;;;;;;;;;5096222;28;20190;-77
2023/10/23 00:59:31;;;;;;;4.25;3.30;;;;;;;;;;5095761;28;20189;-77
2023/10/23 01:01:58;;;;;;;4.43;2.97;;;;;;;;;;5095964;28;20193;-77
2023/10/23 01:04:26;;;;;;;4.40;2.83;;;;;;;;;;5096052;28;20196;-77
2023/10/23 01:06:53;;;;;;;4.18;2.55;;;;;;;;;;5095460;28;20721;-77
2023/10/23 01:09:21;;;;;;;3.45;2.22;;;;;;;;;;5095354;28;20277;-77
2023/10/23 01:11:48;;;;;;;4.10;3.03;;;;;;;;;;5095444;28;20230;-77
2023/10/23 01:14:17;;;;;;;5.35;2.60;;;;;;;;;;5095544;28;20209;-77
2023/10/23 01:16:45;;;;;;;4.72;3.15;;;;;;;;;;5095379;28;20185;-77
2023/10/23 01:19:12;;;;;;;3.78;2.42;;;;;;;;;;5095403;28;20546;-77
2023/10/23 01:21:40;;;;;;;4.68;2.33;;;;;;;;;;5095520;28;20228;-77
2023/10/23 01:24:09;;;;;;;3.80;2.47;;;;;;;;;;5094879;28;20208;-77
2023/10/23 01:26:38;;;;;;;4.05;2.65;;;;;;;;;;5095565;28;20196;-77
2023/10/23 01:29:06;;;;;;;6.63;2.88;;;;;;;;;;5095380;28;20219;-77
2023/10/23 01:31:33;;;;;;;5.57;2.40;;;;;;;;;;5095054;28;20201;-77
2023/10/23 01:34:01;;;;;;;4.10;2.80;;;;;;;;;;5094914;28;20218;-77
2023/10/23 01:36:28;;;;;;;3.70;2.88;;;;;;;;;;5094751;28;20186;-77
2023/10/23 01:38:56;;;;;;;7.60;2.85;;;;;;;;;;5094414;28;20242;-77
2023/10/23 01:41:23;;;;;;;5.38;2.60;;;;;;;;;;5094273;28;20277;-77
2023/10/23 01:43:52;;;;;;;3.40;2.20;;;;;;;;;;5095098;28;20186;-77
2023/10/23 01:46:20;;;;;;;3.85;2.40;;;;;;;;;;5095592;28;20242;-77
2023/10/23 01:48:48;;;;;;;5.40;2.40;;;;;;;;;;5095335;28;20711;-77
2023/10/23 01:51:16;;;;;;;9.25;2.58;;;;;;;;;;5093939;28;20608;-77
2023/10/23 01:53:43;;;;;;;4.80;2.75;;;;;;;;;;5094739;28;20390;-77
2023/10/23 01:56:11;;;;;;;4.65;2.70;;;;;;;;;;5094904;28;20189;-77
2023/10/23 01:58:46;;;;;;;3.20;2.08;;;;;;;;;;5093965;28;20224;-77
2023/10/23 02:01:22;;;;;;;4.00;2.95;;;;;;;;;;5094664;28;20204;-77
2023/10/23 02:03:49;;;;;;;4.00;2.55;;;;;;;;;;5093857;28;20208;-77
2023/10/23 02:06:17;;;;;;;3.70;2.40;;;;;;;;;;5094279;28;20239;-77
2023/10/23 02:08:44;;;;;;;6.80;2.50;;;;;;;;;;5094480;28;20635;-77
2023/10/23 02:11:14;;;;;;;4.60;2.45;;;;;;;;;;5094793;28;20280;-77
2023/10/23 02:13:41;;;;;;;4.00;2.33;;;;;;;;;;5094084;28;20648;-77
2023/10/23 02:16:09;;;;;;;3.50;2.00;;;;;;;;;;5094502;28;20181;-77
2023/10/23 02:18:38;;;;;;;8.25;2.95;;;;;;;;;;5094143;28;20193;-77
2023/10/23 02:21:05;;;;;;;4.20;2.60;;;;;;;;;;5093747;28;20225;-77
2023/10/23 02:23:33;;;;;;;4.78;2.33;;;;;;;;;;5094163;28;20190;-77
2023/10/23 02:26:00;;;;;;;4.18;2.75;;;;;;;;;;5094055;28;20190;-77
2023/10/23 02:28:28;;;;;;;6.55;2.88;;;;;;;;;;5094724;28;20524;-77
2023/10/23 02:30:55;;;;;;;4.45;2.60;;;;;;;;;;5093827;28;20185;-77
2023/10/23 02:33:23;;;;;;;4.65;2.60;;;;;;;;;;5093917;28;20194;-77
2023/10/23 02:35:52;;;;;;;4.15;2.63;;;;;;;;;;5094270;28;20216;-77
2023/10/23 02:38:19;;;;;;;4.63;2.70;;;;;;;;;;5093052;28;20191;-77
2023/10/23 02:40:53;;;;;;;287.30;161.50;;;;;;;;;;5094111;28;20594;-77
2023/10/23 02:43:21;;;;;;;22.80;13.45;;;;;;;;;;5093727;28;20200;-77
2023/10/23 02:45:48;;;;;;;12.05;9.00;;;;;;;;;;5093358;28;20276;-77
2023/10/23 02:48:18;;;;;;;7.28;5.50;;;;;;;;;;5093967;28;20193;-77
2023/10/23 02:50:55;;;;;;;3.95;3.30;;;;;;;;;;5093687;28;20601;-77
2023/10/23 02:53:24;;;;;;;4.63;3.67;;;;;;;;;;5093729;28;20185;-77
2023/10/23 02:55:52;;;;;;;3.78;2.20;;;;;;;;;;5093476;28;20213;-77
2023/10/23 02:58:20;;;;;;;2.80;2.28;;;;;;;;;;5093468;28;20211;-77
2023/10/23 03:00:48;;;;;;;3.78;2.35;;;;;;;;;;5093073;28;20217;-77
2023/10/23 03:03:15;;;;;;;4.85;2.20;;;;;;;;;;5093573;28;20190;-77
2023/10/23 03:05:43;;;;;;;3.40;2.33;;;;;;;;;;5090742;28;20272;-77
2023/10/23 03:08:12;;;;;;;3.22;2.30;;;;;;;;;;5093736;28;20274;-77
2023/10/23 03:10:39;;;;;;;3.85;2.72;;;;;;;;;;5092903;28;20276;-77
2023/10/23 03:13:07;;;;;;;3.15;2.13;;;;;;;;;;5093687;28;20181;-77
2023/10/23 03:15:35;;;;;;;3.40;2.20;;;;;;;;;;5092998;28;20208;-77
2023/10/23 03:18:05;;;;;;;3.60;2.80;;;;;;;;;;5093553;28;20189;-77
2023/10/23 03:20:34;;;;;;;3.10;2.20;;;;;;;;;;5092939;28;20243;-77
2023/10/23 03:23:01;;;;;;;3.67;1.98;;;;;;;;;;5093226;28;20258;-77
2023/10/23 03:25:31;;;;;;;3.58;2.33;;;;;;;;;;5093555;28;20254;-77
2023/10/23 03:27:59;;;;;;;3.90;2.95;;;;;;;;;;5092515;28;20648;-77
2023/10/23 03:30:27;;;;;;;3.80;2.30;;;;;;;;;;5093149;28;20198;-77
2023/10/23 03:32:54;;;;;;;3.70;2.45;;;;;;;;;;5093554;28;20196;-77
2023/10/23 03:35:22;;;;;;;4.65;2.55;;;;;;;;;;5093452;28;20225;-77
2023/10/23 03:37:49;;;;;;;5.45;3.20;;;;;;;;;;5093351;28;20196;-77
2023/10/23 03:40:17;;;;;;;5.97;4.05;;;;;;;;;;5092929;28;20225;-77
2023/10/23 03:42:46;;;;;;;5.13;3.58;;;;;;;;;;5093136;28;20288;-77
2023/10/23 03:45:15;;;;;;;9.60;3.90;;;;;;;;;;5092685;28;20196;-77
2023/10/23 03:47:43;;;;;;;5.65;3.70;;;;;;;;;;5092636;28;20186;-77
2023/10/23 03:50:10;;;;;;;9.27;4.55;;;;;;;;;;5092737;28;20720;-77
2023/10/23 03:52:38;;;;;;;7.22;4.18;;;;;;;;;;5092819;28;20205;-77
2023/10/23 03:55:06;;;;;;;5.90;4.05;;;;;;;;;;5093301;28;20216;-77
2023/10/23 03:57:33;;;;;;;8.15;4.20;;;;;;;;;;5093185;28;20200;-77
2023/10/23 04:00:03;;;;;;;23.77;10.15;;;;;;;;;;5092885;28;20193;-77
2023/10/23 04:02:31;;;;;;;139.13;44.30;;;;;;;;;;5093342;28;20231;-77
2023/10/23 04:05:02;;;;;;;81.72;25.27;;;;;;;;;;5096871;28;20277;-77
2023/10/23 04:07:30;;;;;;;58.80;21.52;;;;;;;;;;5097104;28;20213;-77
2023/10/23 04:10:15;;;;;;;14.02;5.43;;;;;;;;;;5096295;28;20614;-77
2023/10/23 04:12:42;;;;;;;6.43;3.50;;;;;;;;;;5089793;28;20188;-77
2023/10/23 04:15:12;;;;;;;5.45;3.60;;;;;;;;;;5096866;28;20300;-77
2023/10/23 04:17:39;;;;;;;16.33;6.93;;;;;;;;;;5096469;28;20193;-77
2023/10/23 04:20:08;;;;;;;18.35;6.90;;;;;;;;;;5096306;28;20698;-77
2023/10/23 04:22:35;;;;;;;13.77;5.70;;;;;;;;;;5095849;28;20220;-77
2023/10/23 04:25:03;;;;;;;10.20;5.60;;;;;;;;;;5096682;28;20205;-77
2023/10/23 04:27:30;;;;;;;5.95;4.43;;;;;;;;;;5096327;28;20721;-77
2023/10/23 04:29:59;;;;;;;7.78;4.38;;;;;;;;;;5096205;28;20272;-77
2023/10/23 04:32:28;;;;;;;9.23;5.03;;;;;;;;;;5096209;28;20270;-77
2023/10/23 04:34:56;;;;;;;8.50;5.65;;;;;;;;;;5096401;28;20220;-77
2023/10/23 04:37:23;;;;;;;7.30;5.57;;;;;;;;;;5095984;28;20514;-77
2023/10/23 04:39:51;;;;;;;8.00;4.50;;;;;;;;;;5096402;28;20197;-77
2023/10/23 04:42:18;;;;;;;6.05;4.20;;;;;;;;;;5096404;28;20199;-77
2023/10/23 04:44:49;;;;;;;11.00;4.55;;;;;;;;;;5096007;28;20196;-77
2023/10/23 04:47:16;;;;;;;5.18;3.72;;;;;;;;;;5096295;28;20209;-77
2023/10/23 04:49:47;;;;;;;5.20;3.50;;;;;;;;;;5096292;28;20487;-77
2023/10/23 04:52:16;;;;;;;8.98;4.35;;;;;;;;;;5096030;28;20189;-77
2023/10/23 04:54:46;;;;;;;5.45;3.55;;;;;;;;;;5096356;28;20193;-77
2023/10/23 04:57:14;;;;;;;4.10;2.90;;;;;;;;;;5095780;28;20190;-77
2023/10/23 04:59:43;;;;;;;4.15;1.88;;;;;;;;;;5096263;28;20250;-77
2023/10/23 05:02:11;;;;;;;4.10;2.42;;;;;;;;;;5095753;28;20552;-77
2023/10/23 05:04:38;;;;;;;5.47;2.45;;;;;;;;;;5095521;28;20220;-77
2023/10/23 05:07:07;;;;;;;4.32;2.45;;;;;;;;;;5095795;28;20521;-77
2023/10/23 05:09:35;;;;;;;5.05;1.92;;;;;;;;;;5095809;28;20197;-77
2023/10/23 05:12:04;;;;;;;3.70;2.10;;;;;;;;;;5095507;28;20593;-77
2023/10/23 05:14:33;;;;;;;3.47;1.92;;;;;;;;;;5093633;28;20189;-77
2023/10/23 05:17:08;;;;;;;5.32;2.35;;;;;;;;;;5093128;28;20548;-77
2023/10/23 05:19:37;;;;;;;3.45;2.10;;;;;;;;;;5090201;28;20217;-77
2023/10/23 05:22:05;;;;;;;3.10;2.20;;;;;;;;;;5091511;28;20193;-78
2023/10/23 05:24:34;;;;;;;3.58;2.10;;;;;;;;;;5093046;28;20197;-77
2023/10/23 05:27:02;;;;;;;3.30;2.28;;;;;;;;;;5093905;28;20232;-77
2023/10/23 05:29:29;;;;;;;5.35;2.88;;;;;;;;;;5093529;28;20198;-77
2023/10/23 05:31:58;;;;;;;5.15;3.15;;;;;;;;;;5093088;28;20611;-77
2023/10/23 05:34:26;;;;;;;5.70;3.10;;;;;;;;;;5093191;28;20197;-77
2023/10/23 05:36:53;;;;;;;3.90;2.47;;;;;;;;;;5093453;28;20628;-77
2023/10/23 05:39:21;;;;;;;5.28;3.65;;;;;;;;;;5092834;28;20200;-77
2023/10/23 05:41:50;;;;;;;7.10;3.85;;;;;;;;;;5092988;28;20242;-77
2023/10/23 05:44:18;;;;;;;4.60;3.15;;;;;;;;;;5089342;28;20197;-77
2023/10/23 05:46:46;;;;;;;6.30;4.00;;;;;;;;;;5092965;28;20209;-76
2023/10/23 05:49:13;;;;;;;7.38;3.92;;;;;;;;;;5092788;28;20280;-76
2023/10/23 05:51:41;;;;;;;10.60;3.90;;;;;;;;;;5092874;28;20592;-76
2023/10/23 05:54:09;;;;;;;6.10;5.18;;;;;;;;;;5092876;28;20197;-76
2023/10/23 05:56:37;;;;;;;7.20;3.67;;;;;;;;;;5092847;28;20217;-76
2023/10/23 05:59:06;;;;;;;7.75;4.53;;;;;;;;;;5092927;28;20197;-76
2023/10/23 06:01:33;;;;;;;9.70;5.10;;;;;;;;;;5088993;28;20185;-76
2023/10/23 06:04:01;;;;;;;6.95;4.65;;;;;;;;;;5092402;28;20204;-76
2023/10/23 06:06:29;;;;;;;6.85;4.60;;;;;;;;;;5091961;28;20197;-76
2023/10/23 06:08:56;;;;;;;5.05;3.95;;;;;;;;;;5092319;28;20594;-76
2023/10/23 06:11:24;;;;;;;6.40;4.15;;;;;;;;;;5092842;28;20219;-76
2023/10/23 06:13:51;;;;;;;6.13;3.95;;;;;;;;;;5092682;28;20284;-76
2023/10/23 06:16:20;;;;;;;6.38;3.50;;;;;;;;;;5088579;28;20283;-76
2023/10/23 06:18:48;;;;;;;5.47;3.22;;;;;;;;;;5090954;28;20204;-76
2023/10/23 06:21:15;;;;;;;5.15;3.25;;;;;;;;;;5091803;28;20756;-76
2023/10/23 06:23:42;;;;;;;5.57;3.38;;;;;;;;;;5092128;28;20221;-76
2023/10/23 06:26:10;;;;;;;5.82;3.88;;;;;;;;;;5091426;28;20201;-76
2023/10/23 06:28:39;;;;;;;5.25;3.40;;;;;;;;;;5086801;28;20225;-76
2023/10/23 06:31:06;;;;;;;5.43;3.00;;;;;;;;;;5092356;28;20604;-76
2023/10/23 06:33:36;;;;;;;6.22;3.63;;;;;;;;;;5092145;28;20250;-76
2023/10/23 06:36:04;;;;;;;4.03;3.20;;;;;;;;;;5091902;28;20217;-76
2023/10/23 06:38:31;;;;;;;4.60;2.95;;;;;;;;;;5091132;28;20189;-76
2023/10/23 06:41:04;;;;;;;5.85;2.90;;;;;;;;;;5091868;28;20659;-76
2023/10/23 06:43:31;;;;;;;3.90;3.50;;;;;;;;;;5085205;28;20231;-76
2023/10/23 06:45:59;;;;;;;6.68;5.97;;;;;;;;;;5085264;28;20193;-76
2023/10/23 06:48:26;;;;;;;6.97;6.28;;;;;;;;;;5089506;28;20228;-76
2023/10/23 06:50:55;;;;;;;5.22;4.68;;;;;;;;;;5090429;28;20232;-76
2023/10/23 06:53:22;;;;;;;7.70;3.60;;;;;;;;;;5091122;28;20238;-76
2023/10/23 06:55:49;;;;;;;5.15;3.60;;;;;;;;;;5090383;28;20213;-76
2023/10/23 06:58:16;;;;;;;3.70;3.20;;;;;;;;;;5091112;28;20193;-76
2023/10/23 07:00:44;;;;;;;6.13;3.90;;;;;;;;;;5090090;28;20205;-76
2023/10/23 07:03:11;;;;;;;7.22;4.60;;;;;;;;;;5092237;28;20330;-76
2023/10/23 07:05:38;;;;;;;7.22;3.90;;;;;;;;;;5092599;28;20205;-76
2023/10/23 07:08:07;;;;;;;3.67;2.80;;;;;;;;;;5092580;28;20189;-76
2023/10/23 07:10:34;;;;;;;5.07;2.97;;;;;;;;;;5092073;28;20649;-76
2023/10/23 07:13:02;;;;;;;3.55;2.47;;;;;;;;;;5088430;28;20250;-76
2023/10/23 07:15:29;;;;;;;3.72;2.33;;;;;;;;;;5091612;28;20233;-76
2023/10/23 07:17:56;;;;;;;3.72;2.40;;;;;;;;;;5092740;28;20193;-76
2023/10/23 07:20:24;;;;;;;3.92;2.67;;;;;;;;;;5092208;28;20257;-76
2023/10/23 07:22:51;;;;;;;3.53;1.98;;;;;;;;;;5092127;28;20194;-76
2023/10/23 07:25:19;;;;;;;3.45;2.17;;;;;;;;;;5092620;28;20193;-76
2023/10/23 07:27:47;;;;;;;3.33;1.98;;;;;;;;;;5092574;28;20201;-76
2023/10/23 07:30:15;;;;;;;3.33;1.85;;;;;;;;;;5091849;28;20255;-76
2023/10/23 07:32:42;;;;;;;4.47;2.08;;;;;;;;;;5092048;28;20247;-76
2023/10/23 07:35:09;;;;;;;3.22;2.33;;;;;;;;;;5092200;28;20228;-76
2023/10/23 07:37:37;;;;;;;4.47;2.30;;;;;;;;;;5095240;28;20217;-76
2023/10/23 07:40:05;;;;;;;5.78;3.15;;;;;;;;;;5096312;28;20197;-76
2023/10/23 07:42:34;;;;;;;6.00;3.78;;;;;;;;;;5096585;28;20284;-76
2023/10/23 07:45:03;;;;;;;3.80;2.65;;;;;;;;;;5096505;28;20197;-76
2023/10/23 07:47:30;;;;;;;9.40;3.90;;;;;;;;;;5096123;28;20731;-76
2023/10/23 07:49:58;;;;;;;4.05;3.35;;;;;;;;;;5096036;28;20198;-76
2023/10/23 07:52:25;;;;;;;9.95;3.33;;;;;;;;;;5095908;28;20189;-76
2023/10/23 07:54:52;;;;;;;5.05;3.67;;;;;;;;;;5096454;28;20534;-76
2023/10/23 07:57:19;;;;;;;4.35;2.90;;;;;;;;;;5096187;28;20224;-76
2023/10/23 07:59:48;;;;;;;4.00;2.60;;;;;;;;;;5095580;28;20234;-76
2023/10/23 08:02:15;;;;;;;4.37;3.57;;;;;;;;;;5095838;28;20247;-77
2023/10/23 08:04:43;;;;;;;5.17;3.30;;;;;;;;;;5096303;28;20462;-76
2023/10/23 08:07:10;;;;;;;6.43;3.40;;;;;;;;;;5095505;28;20439;-77
2023/10/23 08:09:37;;;;;;;3.50;2.73;;;;;;;;;;5095272;28;20436;-77
2023/10/23 08:12:05;;;;;;;5.03;3.20;;;;;;;;;;5095191;28;20443;-77
2023/10/23 08:14:32;;;;;;;3.93;2.63;;;;;;;;;;5096037;28;20795;-78
2023/10/23 08:17:01;;;;;;;3.70;2.07;;;;;;;;;;5095083;28;20540;-78
2023/10/23 08:19:28;;;;;;;3.40;1.90;;;;;;;;;;5095583;28;20864;-78
2023/10/23 08:21:55;;;;;;;4.50;2.67;;;;;;;;;;5095116;28;20485;-78
2023/10/23 08:24:23;;;;;;;4.17;2.13;;;;;;;;;;5094898;28;20439;-78
2023/10/23 08:26:50;;;;;;;5.37;2.33;;;;;;;;;;5095804;28;20443;-79
2023/10/23 08:29:18;;;;;;;6.20;2.80;;;;;;;;;;5091245;28;20443;-78
2023/10/23 08:31:45;;;;;;;4.47;2.47;;;;;;;;;;5095701;28;20443;-79
2023/10/23 08:34:13;;;;;;;3.70;2.13;;;;;;;;;;5095680;28;20454;-79
2023/10/23 08:36:41;;;;;;;4.50;1.73;;;;;;;;;;5095201;28;20479;-79
2023/10/23 08:39:08;;;;;;;3.23;1.80;;;;;;;;;;5095190;28;20447;-79
2023/10/23 08:41:36;;;;;;;3.87;1.83;;;;;;;;;;5095665;28;20436;-79
2023/10/23 08:44:04;;;;;;;6.20;2.07;;;;;;;;;;5095383;28;20509;-79
2023/10/23 08:46:33;;;;;;;3.67;1.73;;;;;;;;;;5095155;28;20971;-79
2023/10/23 08:49:00;;;;;;;10.50;2.17;;;;;;;;;;5094622;28;20447;-79
2023/10/23 08:51:30;;;;;;;3.50;1.73;;;;;;;;;;5094800;28;20975;-79
2023/10/23 08:54:05;;;;;;;5.10;2.00;;;;;;;;;;5094900;28;20443;-79
2023/10/23 08:56:34;;;;;;;2.60;1.40;;;;;;;;;;5095208;28;20474;-79
2023/10/23 08:59:02;;;;;;;4.73;1.80;;;;;;;;;;5095083;28;20467;-80
2023/10/23 09:01:29;;;;;;;3.93;1.67;;;;;;;;;;5094138;28;20471;-79
2023/10/23 09:03:57;;;;;;;3.40;1.37;;;;;;;;;;5095317;28;20975;-80
2023/10/23 09:06:24;;;;;;;8.27;1.60;;;;;;;;;;5094565;28;20431;-79
2023/10/23 09:08:53;;;;;;;2.60;1.63;;;;;;;;;;5094441;28;20439;-80
2023/10/23 09:11:22;;;;;;;2.97;1.70;;;;;;;;;;5094395;28;20443;-79
2023/10/23 09:13:50;;;;;;;3.33;1.63;;;;;;;;;;5094900;28;20462;-79
2023/10/23 09:16:17;;;;;;;2.97;1.50;;;;;;;;;;5094297;28;20467;-79
2023/10/23 09:18:49;;;;;;;3.60;1.50;;;;;;;;;;5094844;28;20443;-80
2023/10/23 09:21:16;;;;;;;4.60;1.50;;;;;;;;;;5094465;28;20481;-80
2023/10/23 09:23:55;;;;;;;2.80;1.53;;;;;;;;;;5094415;28;20439;-80
2023/10/23 09:26:22;;;;;;;2.73;1.43;;;;;;;;;;5094200;28;20477;-79
2023/10/23 09:28:52;;;;;;;3.60;1.30;;;;;;;;;;5094699;28;20443;-79
2023/10/23 09:31:19;;;;;;;3.53;1.47;;;;;;;;;;5094068;28;20797;-79
2023/10/23 09:33:48;;;;;;;4.00;1.83;;;;;;;;;;5094256;28;20489;-79
2023/10/23 09:36:15;;;;;;;4.33;1.93;;;;;;;;;;5094396;28;20984;-79
2023/10/23 09:38:43;;;;;;;7.13;1.60;;;;;;;;;;5094244;28;20435;-79
2023/10/23 09:41:12;;;;;;;2.73;1.60;;;;;;;;;;5093926;28;20451;-79
2023/10/23 09:43:46;;;;;;;2.70;1.50;;;;;;;;;;5094452;28;20843;-78
2023/10/23 09:46:13;;;;;;;2.30;1.20;;;;;;;;;;5094369;28;20501;-78
2023/10/23 09:48:43;;;;;;;3.70;1.50;;;;;;;;;;5093919;28;20439;-78
2023/10/23 09:51:14;;;;;;;2.60;1.47;;;;;;;;;;5093699;28;20458;-79
2023/10/23 09:53:43;;;;;;;3.17;1.40;;;;;;;;;;5094231;28;20911;-79
2023/10/23 09:56:13;;;;;;;4.50;2.60;;;;;;;;;;5094043;28;20480;-78
2023/10/23 09:58:44;;;;;;;5.17;2.20;;;;;;;;;;5094149;28;20816;-78
2023/10/23 10:01:11;;;;;;;3.80;1.53;;;;;;;;;;5092742;28;20439;-79
2023/10/23 10:03:40;;;;;;;3.50;1.77;;;;;;;;;;5093637;28;20431;-79
2023/10/23 10:06:13;;;;;;;2.20;1.00;;;;;;;;;;5089775;28;20789;-79
2023/10/23 10:08:43;;;;;;;4.93;2.10;;;;;;;;;;5090298;28;20488;-79
2023/10/23 10:11:13;;;;;;;3.73;1.47;;;;;;;;;;5088498;28;20443;-79
2023/10/23 10:13:41;;;;;;;2.53;1.07;;;;;;;;;;5093849;28;20510;-79
2023/10/23 10:16:08;;;;;;;2.50;1.27;;;;;;;;;;5093844;28;20440;-78
2023/10/23 10:18:36;;;;;;;3.67;1.10;;;;;;;;;;5093589;28;20553;-78
2023/10/23 10:21:05;;;;;;;3.00;0.93;;;;;;;;;;5093104;28;20860;-78
2023/10/23 10:23:35;;;;;;;3.63;1.17;;;;;;;;;;5093324;28;20447;-77
2023/10/23 10:26:03;;;;;;;3.80;1.27;;;;;;;;;;5093378;28;20561;-78
2023/10/23 10:28:32;;;;;;;2.87;1.00;;;;;;;;;;5092997;28;20844;-77
2023/10/23 10:30:59;;;;;;;2.53;1.10;;;;;;;;;;5093009;28;20435;-78
2023/10/23 10:33:29;;;;;;;2.90;1.10;;;;;;;;;;5093140;28;20437;-77
2023/10/23 10:35:59;;;;;;;2.57;0.90;;;;;;;;;;5092884;28;20866;-78
2023/10/23 10:38:29;;;;;;;2.27;0.80;;;;;;;;;;5093534;28;20464;-78
2023/10/23 10:40:57;;;;;;;2.83;1.20;;;;;;;;;;5092996;28;20435;-79
2023/10/23 10:43:25;;;;;;;2.73;1.33;;;;;;;;;;5093272;28;20431;-79
2023/10/23 10:45:56;;;;;;;2.40;1.10;;;;;;;;;;5093040;28;20508;-79
2023/10/23 10:48:24;;;;;;;2.70;1.00;;;;;;;;;;5092909;28;20569;-79
2023/10/23 10:50:52;;;;;;;4.10;1.20;;;;;;;;;;5092590;28;20439;-78
2023/10/23 10:53:19;;;;;;;2.50;1.10;;;;;;;;;;5092718;28;20435;-78
2023/10/23 10:55:46;;;;;;;2.47;1.23;;;;;;;;;;5092680;28;20431;-79
2023/10/23 10:58:14;;;;;;;2.73;1.10;;;;;;;;;;5092626;28;20435;-79
2023/10/23 11:00:41;;;;;;;4.23;1.20;;;;;;;;;;5092660;28;20443;-78
2023/10/23 11:03:10;;;;;;;2.73;1.20;;;;;;;;;;5092911;28;20492;-78
2023/10/23 11:05:40;;;;;;;2.40;0.97;;;;;;;;;;5092702;28;20435;-78
2023/10/23 11:08:07;;;;;;;2.67;1.07;;;;;;;;;;5092720;28;20485;-78
2023/10/23 11:10:36;;;;;;;2.40;1.10;;;;;;;;;;5092526;28;20489;-78
2023/10/23 11:13:03;;;;;;;2.97;1.20;;;;;;;;;;5091571;28;20854;-78
2023/10/23 11:15:31;;;;;;;4.40;1.10;;;;;;;;;;5092390;28;20936;-78
2023/10/23 11:17:58;;;;;;;2.90;1.20;;;;;;;;;;5092338;28;20933;-78
2023/10/23 11:20:30;;;;;;;3.27;0.87;;;;;;;;;;5092070;28;21070;-77
2023/10/23 11:23:00;;;;;;;3.80;1.00;;;;;;;;;;5092505;28;20432;-77
2023/10/23 11:25:27;;;;;;;3.13;1.17;;;;;;;;;;5091674;28;20452;-78
2023/10/23 11:27:55;;;;;;;3.07;1.30;;;;;;;;;;5092295;28;20545;-77
2023/10/23 11:30:26;;;;;;;4.00;1.00;;;;;;;;;;5090052;28;20453;-78
2023/10/23 11:32:53;;;;;;;2.60;1.07;;;;;;;;;;5091323;28;20924;-78
2023/10/23 11:35:20;;;;;;;2.53;1.23;;;;;;;;;;5088444;28;20740;-78
2023/10/23 11:37:49;;;;;;;3.30;1.40;;;;;;;;;;5092301;28;20432;-78
2023/10/23 11:40:20;;;;;;;3.17;1.33;;;;;;;;;;5092222;28;20521;-78
2023/10/23 11:42:48;;;;;;;5.23;1.83;;;;;;;;;;5092193;28;20598;-78
2023/10/23 11:45:19;;;;;;;2.67;1.10;;;;;;;;;;5092087;28;20923;-78
2023/10/23 11:47:46;;;;;;;4.37;1.40;;;;;;;;;;5092194;28;20855;-78
2023/10/23 11:50:14;;;;;;;2.63;0.90;;;;;;;;;;5088259;28;20428;-78
2023/10/23 11:52:43;;;;;;;3.50;1.00;;;;;;;;;;5090231;28;20435;-78
2023/10/23 11:55:14;;;;;;;2.10;1.00;;;;;;;;;;5092480;28;20862;-79
2023/10/23 11:57:42;;;;;;;3.20;0.90;;;;;;;;;;5091273;28;20638;-79
2023/10/23 12:00:15;;;;;;;3.10;0.80;;;;;;;;;;5091416;28;20427;-78
2023/10/23 12:02:42;;;;;;;2.10;0.70;;;;;;;;;;5090901;28;20427;-79
2023/10/23 12:05:19;;;;;;;2.50;1.00;;;;;;;;;;5091917;28;20488;-78
2023/10/23 12:07:48;;;;;;;2.67;1.10;;;;;;;;;;5091357;28;20952;-79
2023/10/23 12:10:17;;;;;;;2.87;1.20;;;;;;;;;;5091620;28;20431;-79
2023/10/23 12:12:45;;;;;;;2.80;1.10;;;;;;;;;;5091537;28;20475;-79
2023/10/23 12:15:13;;;;;;;3.63;1.20;;;;;;;;;;5091723;28;20443;-79
2023/10/23 12:17:41;;;;;;;3.20;1.00;;;;;;;;;;5091783;28;20438;-79
2023/10/23 12:20:09;;;;;;;2.50;1.00;;;;;;;;;;5088192;28;20949;-78
2023/10/23 12:22:38;;;;;;;2.83;0.93;;;;;;;;;;5090465;28;20450;-79
2023/10/23 12:25:05;;;;;;;2.60;1.20;;;;;;;;;;5094124;28;20477;-79
2023/10/23 12:27:34;;;;;;;2.10;0.73;;;;;;;;;;5095013;28;20479;-79
2023/10/23 12:30:04;;;;;;;2.30;1.03;;;;;;;;;;5094374;28;20442;-79
2023/10/23 12:32:31;;;;;;;2.73;1.27;;;;;;;;;;5091448;28;20529;-79
2023/10/23 12:34:59;;;;;;;2.87;0.97;;;;;;;;;;5095557;28;20471;-79
2023/10/23 12:37:27;;;;;;;4.20;1.20;;;;;;;;;;5095124;28;20453;-79
2023/10/23 12:39:56;;;;;;;2.30;0.93;;;;;;;;;;5094872;28;20504;-79
2023/10/23 12:42:27;;;;;;;2.83;1.00;;;;;;;;;;5095404;28;20449;-79
2023/10/23 12:44:56;;;;;;;2.20;0.90;;;;;;;;;;5095367;28;20442;-79
2023/10/23 12:47:23;;;;;;;2.70;1.20;;;;;;;;;;5094960;28;20543;-79
2023/10/23 12:49:51;;;;;;;2.87;1.10;;;;;;;;;;5094699;28;20442;-79
2023/10/23 12:52:18;;;;;;;2.07;0.73;;;;;;;;;;5094859;28;20446;-78
2023/10/23 12:54:46;;;;;;;2.17;0.97;;;;;;;;;;5095020;28;20431;-79
2023/10/23 12:57:13;;;;;;;2.30;0.97;;;;;;;;;;5094920;28;20462;-78
2023/10/23 12:59:40;;;;;;;2.90;1.00;;;;;;;;;;5094573;28;20439;-78
2023/10/23 13:02:09;;;;;;;3.23;1.00;;;;;;;;;;5094856;28;20447;-78
2023/10/23 13:04:37;;;;;;;7.87;1.10;;;;;;;;;;5095328;28;20793;-79
2023/10/23 13:07:05;;;;;;;2.83;0.90;;;;;;;;;;5094543;28;20439;-79
2023/10/23 13:09:32;;;;;;;2.97;0.80;;;;;;;;;;5094791;28;20494;-78
2023/10/23 13:11:59;;;;;;;2.43;1.00;;;;;;;;;;5094591;28;20493;-78
2023/10/23 13:14:27;;;;;;;2.60;0.80;;;;;;;;;;5095213;28;20464;-78
2023/10/23 13:16:55;;;;;;;1.93;0.70;;;;;;;;;;5094971;28;20562;-78
2023/10/23 13:19:25;;;;;;;3.03;1.10;;;;;;;;;;5093908;28;20532;-78
2023/10/23 13:21:53;;;;;;;2.20;0.80;;;;;;;;;;5094362;28;20925;-78
2023/10/23 13:24:21;;;;;;;2.40;0.80;;;;;;;;;;5094435;28;20439;-78
2023/10/23 13:26:48;;;;;;;2.50;0.93;;;;;;;;;;5094265;28;20435;-77
2023/10/23 13:29:16;;;;;;;2.47;1.00;;;;;;;;;;5094130;28;20474;-77
2023/10/23 13:31:47;;;;;;;5.43;1.57;;;;;;;;;;5094265;28;20435;-77
2023/10/23 13:34:15;;;;;;;3.37;1.20;;;;;;;;;;5094951;28;20447;-78
2023/10/23 13:36:43;;;;;;;3.40;1.17;;;;;;;;;;5090531;28;20475;-77
2023/10/23 13:39:12;;;;;;;6.03;1.23;;;;;;;;;;5094148;28;20446;-78
2023/10/23 13:41:39;;;;;;;2.23;0.90;;;;;;;;;;5093967;28;20504;-77
2023/10/23 13:44:07;;;;;;;3.50;0.83;;;;;;;;;;5094057;28;20517;-78
2023/10/23 13:46:34;;;;;;;2.47;1.07;;;;;;;;;;5094175;28;20442;-77
2023/10/23 13:49:02;;;;;;;3.10;1.07;;;;;;;;;;5093895;28;20473;-77
2023/10/23 13:51:30;;;;;;;3.10;1.33;;;;;;;;;;5093876;28;20439;-77
2023/10/23 13:53:58;;;;;;;5.10;1.23;;;;;;;;;;5093932;28;20431;-77
2023/10/23 13:56:26;;;;;;;2.87;1.60;;;;;;;;;;5093693;28;20431;-77
2023/10/23 13:58:53;;;;;;;2.30;1.13;;;;;;;;;;5093978;28;20435;-77
2023/10/23 14:01:20;;;;;;;4.03;1.40;;;;;;;;;;5093214;28;20926;-76
2023/10/23 14:03:48;;;;;;;4.37;1.10;;;;;;;;;;5093585;28;20508;-77
2023/10/23 14:06:15;;;;;;;2.33;1.03;;;;;;;;;;5087414;28;20428;-77
2023/10/23 14:08:43;;;;;;;3.73;1.20;;;;;;;;;;5093190;28;20536;-77
2023/10/23 14:11:11;;;;;;;4.87;1.37;;;;;;;;;;5092947;28;20486;-77
2023/10/23 14:13:39;;;;;;;3.17;1.30;;;;;;;;;;5093462;28;20493;-77
2023/10/23 14:16:06;;;;;;;3.90;1.70;;;;;;;;;;5093194;28;20423;-77
2023/10/23 14:18:33;;;;;;;6.20;1.50;;;;;;;;;;5093112;28;20493;-77
2023/10/23 14:21:04;;;;;;;2.80;1.30;;;;;;;;;;5092638;28;20463;-77
2023/10/23 14:23:31;;;;;;;4.00;1.10;;;;;;;;;;5093616;28;20518;-77
2023/10/23 14:25:59;;;;;;;2.80;1.67;;;;;;;;;;5093463;28;20436;-77
2023/10/23 14:28:27;;;;;;;2.83;1.53;;;;;;;;;;5093018;28;20983;-77
2023/10/23 14:30:55;;;;;;;3.63;1.40;;;;;;;;;;5092927;28;20516;-77
2023/10/23 14:33:22;;;;;;;3.50;1.50;;;;;;;;;;5093478;28;20455;-77
2023/10/23 14:35:49;;;;;;;2.63;1.03;;;;;;;;;;5092609;28;20930;-77
2023/10/23 14:38:17;;;;;;;4.33;1.30;;;;;;;;;;5092865;28;20518;-77
2023/10/23 14:40:53;;;;;;;2.83;1.00;;;;;;;;;;5092687;28;20494;-77
2023/10/23 14:43:20;;;;;;;3.83;1.50;;;;;;;;;;5089461;28;20500;-77
2023/10/23 14:45:51;;;;;;;3.50;1.20;;;;;;;;;;5092652;28;20531;-77
2023/10/23 14:48:19;;;;;;;5.17;1.77;;;;;;;;;;5092947;28;20476;-77